sensor_id;sensor_type;location;lat;lon;timestamp;P1;durP1;ratioP1;P2;durP2;ratioP2
3779;SDS011;1905;52.482;9.802;2022-10-16T00:00:57;1.23;;;1.13;;
3779;SDS011;1905;52.482;9.802;2022-10-16T00:03:24;1.70;;;1.10;;
3779;SDS011;1905;52.482;9.802;2022-10-16T00:05:58;1.60;;;1.50;;
3779;SDS011;1905;52.482;9.802;2022-10-16T00:08:26;1.20;;;1.10;;
3779;SDS011;1905;52.482;9.802;2022-10-16T00:10:59;1.57;;;1.10;;
3779;SDS011;1905;52.482;9.802;2022-10-16T00:13:28;1.60;;;1.50;;
3779;SDS011;1905;52.482;9.802;2022-10-16T00:15:57;1.97;;;1.70;;
3779;SDS011;1905;52.482;9.802;2022-10-16T00:18:25;1.40;;;1.30;;
3779;SDS011;1905;52.482;9.802;2022-10-16T00:20:53;1.70;;;1.60;;
3779;SDS011;1905;52.482;9.802;2022-10-16T00:23:22;1.30;;;1.20;;
3779;SDS011;1905;52.482;9.802;2022-10-16T00:25:56;1.67;;;1.30;;
3779;SDS011;1905;52.482;9.802;2022-10-16T00:28:26;1.93;;;1.33;;
3779;SDS011;1905;52.482;9.802;2022-10-16T00:30:54;2.37;;;1.40;;
3779;SDS011;1905;52.482;9.802;2022-10-16T00:33:22;1.83;;;1.30;;
3779;SDS011;1905;52.482;9.802;2022-10-16T00:35:50;2.33;;;1.40;;
3779;SDS011;1905;52.482;9.802;2022-10-16T00:38:18;1.23;;;1.13;;
3779;SDS011;1905;52.482;9.802;2022-10-16T00:40:45;2.40;;;1.17;;
3779;SDS011;1905;52.482;9.802;2022-10-16T00:43:13;1.10;;;1.00;;
3779;SDS011;1905;52.482;9.802;2022-10-16T00:45:58;1.57;;;1.40;;
3779;SDS011;1905;52.482;9.802;2022-10-16T00:48:26;4.70;;;1.20;;
3779;SDS011;1905;52.482;9.802;2022-10-16T00:50:57;1.53;;;1.43;;
3779;SDS011;1905;52.482;9.802;2022-10-16T00:53:25;1.47;;;1.37;;
3779;SDS011;1905;52.482;9.802;2022-10-16T00:55:55;2.13;;;1.10;;
3779;SDS011;1905;52.482;9.802;2022-10-16T00:58:23;1.20;;;1.10;;
3779;SDS011;1905;52.482;9.802;2022-10-16T01:00:50;1.20;;;1.07;;
3779;SDS011;1905;52.482;9.802;2022-10-16T01:03:24;1.30;;;1.20;;
3779;SDS011;1905;52.482;9.802;2022-10-16T01:05:57;1.30;;;1.10;;
3779;SDS011;1905;52.482;9.802;2022-10-16T01:08:36;1.30;;;1.20;;
3779;SDS011;1905;52.482;9.802;2022-10-16T01:11:11;1.77;;;1.42;;
3779;SDS011;1905;52.482;9.802;2022-10-16T01:13:46;4.13;;;1.20;;
3779;SDS011;1905;52.482;9.802;2022-10-16T01:16:19;1.40;;;1.30;;
3779;SDS011;1905;52.482;9.802;2022-10-16T01:18:59;1.30;;;1.20;;
3779;SDS011;1905;52.482;9.802;2022-10-16T01:21:32;2.37;;;2.00;;
3779;SDS011;1905;52.482;9.802;2022-10-16T01:24:06;1.57;;;1.27;;
3779;SDS011;1905;52.482;9.802;2022-10-16T01:26:47;2.33;;;1.20;;
3779;SDS011;1905;52.482;9.802;2022-10-16T01:29:23;1.20;;;1.10;;
3779;SDS011;1905;52.482;9.802;2022-10-16T01:31:56;1.87;;;1.30;;
3779;SDS011;1905;52.482;9.802;2022-10-16T01:34:30;1.90;;;1.70;;
3779;SDS011;1905;52.482;9.802;2022-10-16T01:37:02;1.70;;;1.60;;
3779;SDS011;1905;52.482;9.802;2022-10-16T01:39:35;1.40;;;1.13;;
3779;SDS011;1905;52.482;9.802;2022-10-16T01:42:07;1.30;;;1.20;;
3779;SDS011;1905;52.482;9.802;2022-10-16T01:44:39;3.43;;;1.47;;
3779;SDS011;1905;52.482;9.802;2022-10-16T01:47:09;1.67;;;1.37;;
3779;SDS011;1905;52.482;9.802;2022-10-16T01:49:40;1.53;;;1.37;;
3779;SDS011;1905;52.482;9.802;2022-10-16T01:52:11;2.40;;;1.60;;
3779;SDS011;1905;52.482;9.802;2022-10-16T01:54:43;1.37;;;1.23;;
3779;SDS011;1905;52.482;9.802;2022-10-16T01:57:14;1.17;;;1.07;;
3779;SDS011;1905;52.482;9.802;2022-10-16T01:59:46;1.00;;;1.00;;
3779;SDS011;1905;52.482;9.802;2022-10-16T02:02:17;4.00;;;1.23;;
3779;SDS011;1905;52.482;9.802;2022-10-16T02:04:47;1.40;;;1.30;;
3779;SDS011;1905;52.482;9.802;2022-10-16T02:07:19;1.30;;;1.20;;
3779;SDS011;1905;52.482;9.802;2022-10-16T02:09:47;1.30;;;1.20;;
3779;SDS011;1905;52.482;9.802;2022-10-16T02:12:15;2.30;;;1.53;;
3779;SDS011;1905;52.482;9.802;2022-10-16T02:14:52;1.97;;;1.70;;
3779;SDS011;1905;52.482;9.802;2022-10-16T02:17:20;1.50;;;1.40;;
3779;SDS011;1905;52.482;9.802;2022-10-16T02:19:48;3.47;;;1.47;;
3779;SDS011;1905;52.482;9.802;2022-10-16T02:22:19;1.40;;;1.30;;
3779;SDS011;1905;52.482;9.802;2022-10-16T02:24:54;2.33;;;1.80;;
3779;SDS011;1905;52.482;9.802;2022-10-16T02:27:26;1.50;;;1.40;;
3779;SDS011;1905;52.482;9.802;2022-10-16T02:30:03;1.70;;;1.30;;
3779;SDS011;1905;52.482;9.802;2022-10-16T02:32:36;5.70;;;2.23;;
3779;SDS011;1905;52.482;9.802;2022-10-16T02:35:07;1.67;;;1.50;;
3779;SDS011;1905;52.482;9.802;2022-10-16T02:37:36;1.77;;;1.67;;
3779;SDS011;1905;52.482;9.802;2022-10-16T02:40:07;1.97;;;1.80;;
3779;SDS011;1905;52.482;9.802;2022-10-16T02:42:36;2.60;;;1.80;;
3779;SDS011;1905;52.482;9.802;2022-10-16T02:45:08;2.23;;;1.50;;
3779;SDS011;1905;52.482;9.802;2022-10-16T02:47:37;1.93;;;1.50;;
3779;SDS011;1905;52.482;9.802;2022-10-16T02:50:05;3.47;;;1.60;;
3779;SDS011;1905;52.482;9.802;2022-10-16T02:52:33;1.58;;;1.48;;
3779;SDS011;1905;52.482;9.802;2022-10-16T02:55:01;1.47;;;1.37;;
3779;SDS011;1905;52.482;9.802;2022-10-16T02:57:28;2.00;;;1.63;;
3779;SDS011;1905;52.482;9.802;2022-10-16T02:59:56;1.50;;;1.40;;
3779;SDS011;1905;52.482;9.802;2022-10-16T03:02:25;1.80;;;1.70;;
3779;SDS011;1905;52.482;9.802;2022-10-16T03:04:52;2.00;;;1.67;;
3779;SDS011;1905;52.482;9.802;2022-10-16T03:07:20;3.07;;;1.40;;
3779;SDS011;1905;52.482;9.802;2022-10-16T03:09:48;2.60;;;1.80;;
3779;SDS011;1905;52.482;9.802;2022-10-16T03:12:16;2.17;;;1.97;;
3779;SDS011;1905;52.482;9.802;2022-10-16T03:14:43;2.87;;;1.50;;
3779;SDS011;1905;52.482;9.802;2022-10-16T03:17:11;1.77;;;1.67;;
3779;SDS011;1905;52.482;9.802;2022-10-16T03:19:40;1.67;;;1.30;;
3779;SDS011;1905;52.482;9.802;2022-10-16T03:22:08;2.13;;;1.67;;
3779;SDS011;1905;52.482;9.802;2022-10-16T03:24:35;2.53;;;1.60;;
3779;SDS011;1905;52.482;9.802;2022-10-16T03:27:03;1.30;;;1.30;;
3779;SDS011;1905;52.482;9.802;2022-10-16T03:29:31;2.00;;;1.70;;
3779;SDS011;1905;52.482;9.802;2022-10-16T03:31:59;1.93;;;1.30;;
3779;SDS011;1905;52.482;9.802;2022-10-16T03:34:27;1.93;;;1.50;;
3779;SDS011;1905;52.482;9.802;2022-10-16T03:36:56;1.30;;;1.20;;
3779;SDS011;1905;52.482;9.802;2022-10-16T03:39:24;2.13;;;1.40;;
3779;SDS011;1905;52.482;9.802;2022-10-16T03:41:51;1.50;;;1.40;;
3779;SDS011;1905;52.482;9.802;2022-10-16T03:44:19;2.07;;;1.60;;
3779;SDS011;1905;52.482;9.802;2022-10-16T03:46:46;7.93;;;1.70;;
3779;SDS011;1905;52.482;9.802;2022-10-16T03:49:14;1.67;;;1.53;;
3779;SDS011;1905;52.482;9.802;2022-10-16T03:51:42;1.90;;;1.02;;
3779;SDS011;1905;52.482;9.802;2022-10-16T03:54:10;3.87;;;1.50;;
3779;SDS011;1905;52.482;9.802;2022-10-16T03:56:38;1.93;;;1.43;;
3779;SDS011;1905;52.482;9.802;2022-10-16T03:59:06;1.63;;;1.53;;
3779;SDS011;1905;52.482;9.802;2022-10-16T04:01:33;1.83;;;1.40;;
3779;SDS011;1905;52.482;9.802;2022-10-16T04:04:01;1.50;;;1.40;;
3779;SDS011;1905;52.482;9.802;2022-10-16T04:06:29;2.07;;;1.50;;
3779;SDS011;1905;52.482;9.802;2022-10-16T04:08:56;2.70;;;1.43;;
3779;SDS011;1905;52.482;9.802;2022-10-16T04:11:25;1.47;;;1.37;;
3779;SDS011;1905;52.482;9.802;2022-10-16T04:13:53;2.23;;;1.73;;
3779;SDS011;1905;52.482;9.802;2022-10-16T04:16:21;1.73;;;1.30;;
3779;SDS011;1905;52.482;9.802;2022-10-16T04:18:48;1.83;;;1.53;;
3779;SDS011;1905;52.482;9.802;2022-10-16T04:21:16;1.42;;;1.33;;
3779;SDS011;1905;52.482;9.802;2022-10-16T04:23:44;1.40;;;1.30;;
3779;SDS011;1905;52.482;9.802;2022-10-16T04:26:11;2.10;;;1.90;;
3779;SDS011;1905;52.482;9.802;2022-10-16T04:28:40;2.00;;;1.90;;
3779;SDS011;1905;52.482;9.802;2022-10-16T04:31:08;2.07;;;1.70;;
3779;SDS011;1905;52.482;9.802;2022-10-16T04:33:36;2.90;;;1.60;;
3779;SDS011;1905;52.482;9.802;2022-10-16T04:36:03;5.33;;;1.60;;
3779;SDS011;1905;52.482;9.802;2022-10-16T04:38:31;1.70;;;1.50;;
3779;SDS011;1905;52.482;9.802;2022-10-16T04:40:59;1.50;;;1.40;;
3779;SDS011;1905;52.482;9.802;2022-10-16T04:43:27;3.23;;;1.80;;
3779;SDS011;1905;52.482;9.802;2022-10-16T04:45:55;2.30;;;1.40;;
3779;SDS011;1905;52.482;9.802;2022-10-16T04:48:23;2.30;;;1.70;;
3779;SDS011;1905;52.482;9.802;2022-10-16T04:50:51;1.93;;;1.43;;
3779;SDS011;1905;52.482;9.802;2022-10-16T04:53:20;3.90;;;2.43;;
3779;SDS011;1905;52.482;9.802;2022-10-16T04:55:48;2.40;;;1.67;;
3779;SDS011;1905;52.482;9.802;2022-10-16T04:58:16;2.80;;;1.80;;
3779;SDS011;1905;52.482;9.802;2022-10-16T05:00:44;1.43;;;1.33;;
3779;SDS011;1905;52.482;9.802;2022-10-16T05:03:14;1.90;;;1.80;;
3779;SDS011;1905;52.482;9.802;2022-10-16T05:05:42;2.90;;;1.90;;
3779;SDS011;1905;52.482;9.802;2022-10-16T05:08:11;6.90;;;2.23;;
3779;SDS011;1905;52.482;9.802;2022-10-16T05:10:40;2.60;;;2.10;;
3779;SDS011;1905;52.482;9.802;2022-10-16T05:13:08;3.00;;;2.50;;
3779;SDS011;1905;52.482;9.802;2022-10-16T05:15:36;5.60;;;2.13;;
3779;SDS011;1905;52.482;9.802;2022-10-16T05:18:04;8.67;;;3.57;;
3779;SDS011;1905;52.482;9.802;2022-10-16T05:20:33;3.43;;;2.30;;
3779;SDS011;1905;52.482;9.802;2022-10-16T05:23:01;2.57;;;2.37;;
3779;SDS011;1905;52.482;9.802;2022-10-16T05:25:28;3.10;;;2.53;;
3779;SDS011;1905;52.482;9.802;2022-10-16T05:27:56;3.37;;;2.27;;
3779;SDS011;1905;52.482;9.802;2022-10-16T05:30:24;2.20;;;1.90;;
3779;SDS011;1905;52.482;9.802;2022-10-16T05:32:52;1.90;;;1.80;;
3779;SDS011;1905;52.482;9.802;2022-10-16T05:35:20;3.53;;;2.23;;
3779;SDS011;1905;52.482;9.802;2022-10-16T05:37:49;2.90;;;1.83;;
3779;SDS011;1905;52.482;9.802;2022-10-16T05:40:17;3.37;;;2.50;;
3779;SDS011;1905;52.482;9.802;2022-10-16T05:42:44;2.15;;;1.95;;
3779;SDS011;1905;52.482;9.802;2022-10-16T05:45:12;5.33;;;2.10;;
3779;SDS011;1905;52.482;9.802;2022-10-16T05:47:40;2.83;;;2.43;;
3779;SDS011;1905;52.482;9.802;2022-10-16T05:50:08;3.37;;;2.67;;
3779;SDS011;1905;52.482;9.802;2022-10-16T05:52:35;5.43;;;2.60;;
3779;SDS011;1905;52.482;9.802;2022-10-16T05:55:05;3.70;;;2.70;;
3779;SDS011;1905;52.482;9.802;2022-10-16T05:57:33;4.80;;;2.33;;
3779;SDS011;1905;52.482;9.802;2022-10-16T06:00:01;5.00;;;2.90;;
3779;SDS011;1905;52.482;9.802;2022-10-16T06:02:37;7.97;;;2.90;;
3779;SDS011;1905;52.482;9.802;2022-10-16T06:05:05;4.00;;;3.20;;
3779;SDS011;1905;52.482;9.802;2022-10-16T06:07:33;8.53;;;3.40;;
3779;SDS011;1905;52.482;9.802;2022-10-16T06:10:03;3.33;;;2.60;;
3779;SDS011;1905;52.482;9.802;2022-10-16T06:12:33;4.93;;;3.10;;
3779;SDS011;1905;52.482;9.802;2022-10-16T06:15:00;4.90;;;2.87;;
3779;SDS011;1905;52.482;9.802;2022-10-16T06:17:28;4.17;;;2.80;;
3779;SDS011;1905;52.482;9.802;2022-10-16T06:19:56;2.53;;;2.30;;
3779;SDS011;1905;52.482;9.802;2022-10-16T06:22:24;6.60;;;3.00;;
3779;SDS011;1905;52.482;9.802;2022-10-16T06:24:52;4.40;;;3.27;;
3779;SDS011;1905;52.482;9.802;2022-10-16T06:27:20;3.20;;;2.70;;
3779;SDS011;1905;52.482;9.802;2022-10-16T06:29:48;3.00;;;2.80;;
3779;SDS011;1905;52.482;9.802;2022-10-16T06:32:16;2.80;;;2.60;;
3779;SDS011;1905;52.482;9.802;2022-10-16T06:34:44;2.53;;;2.33;;
3779;SDS011;1905;52.482;9.802;2022-10-16T06:37:12;3.03;;;2.73;;
3779;SDS011;1905;52.482;9.802;2022-10-16T06:39:40;3.20;;;2.90;;
3779;SDS011;1905;52.482;9.802;2022-10-16T06:42:07;2.23;;;2.03;;
3779;SDS011;1905;52.482;9.802;2022-10-16T06:44:36;4.23;;;2.80;;
3779;SDS011;1905;52.482;9.802;2022-10-16T06:47:04;4.20;;;3.80;;
3779;SDS011;1905;52.482;9.802;2022-10-16T06:49:32;7.07;;;2.73;;
3779;SDS011;1905;52.482;9.802;2022-10-16T06:52:00;4.67;;;3.20;;
3779;SDS011;1905;52.482;9.802;2022-10-16T06:54:28;6.60;;;3.20;;
3779;SDS011;1905;52.482;9.802;2022-10-16T06:57:04;3.07;;;2.80;;
3779;SDS011;1905;52.482;9.802;2022-10-16T06:59:33;4.23;;;2.63;;
3779;SDS011;1905;52.482;9.802;2022-10-16T07:02:02;3.80;;;2.50;;
3779;SDS011;1905;52.482;9.802;2022-10-16T07:04:29;2.63;;;2.43;;
3779;SDS011;1905;52.482;9.802;2022-10-16T07:06:59;2.37;;;2.20;;
3779;SDS011;1905;52.482;9.802;2022-10-16T07:09:32;2.92;;;2.70;;
3779;SDS011;1905;52.482;9.802;2022-10-16T07:12:00;3.27;;;2.87;;
3779;SDS011;1905;52.482;9.802;2022-10-16T07:14:27;2.80;;;2.60;;
3779;SDS011;1905;52.482;9.802;2022-10-16T07:16:56;2.73;;;2.53;;
3779;SDS011;1905;52.482;9.802;2022-10-16T07:19:25;4.00;;;2.30;;
3779;SDS011;1905;52.482;9.802;2022-10-16T07:21:58;3.10;;;2.80;;
3779;SDS011;1905;52.482;9.802;2022-10-16T07:24:26;3.53;;;2.27;;
3779;SDS011;1905;52.482;9.802;2022-10-16T07:26:54;2.60;;;2.40;;
3779;SDS011;1905;52.482;9.802;2022-10-16T07:29:22;2.70;;;2.10;;
3779;SDS011;1905;52.482;9.802;2022-10-16T07:31:50;3.47;;;2.53;;
3779;SDS011;1905;52.482;9.802;2022-10-16T07:34:18;2.33;;;2.13;;
3779;SDS011;1905;52.482;9.802;2022-10-16T07:36:49;3.50;;;2.70;;
3779;SDS011;1905;52.482;9.802;2022-10-16T07:39:17;1.90;;;1.80;;
3779;SDS011;1905;52.482;9.802;2022-10-16T07:41:45;2.90;;;2.37;;
3779;SDS011;1905;52.482;9.802;2022-10-16T07:44:13;2.20;;;2.10;;
3779;SDS011;1905;52.482;9.802;2022-10-16T07:46:43;1.70;;;1.60;;
3779;SDS011;1905;52.482;9.802;2022-10-16T07:49:10;4.50;;;1.90;;
3779;SDS011;1905;52.482;9.802;2022-10-16T07:51:38;1.77;;;1.67;;
3779;SDS011;1905;52.482;9.802;2022-10-16T07:54:07;3.73;;;2.20;;
3779;SDS011;1905;52.482;9.802;2022-10-16T07:56:35;1.70;;;1.60;;
3779;SDS011;1905;52.482;9.802;2022-10-16T07:59:09;2.27;;;2.07;;
3779;SDS011;1905;52.482;9.802;2022-10-16T08:01:37;2.00;;;1.90;;
3779;SDS011;1905;52.482;9.802;2022-10-16T08:04:05;2.27;;;1.97;;
3779;SDS011;1905;52.482;9.802;2022-10-16T08:06:34;1.77;;;1.67;;
3779;SDS011;1905;52.482;9.802;2022-10-16T08:09:04;2.63;;;1.83;;
3779;SDS011;1905;52.482;9.802;2022-10-16T08:11:33;1.77;;;1.50;;
3779;SDS011;1905;52.482;9.802;2022-10-16T08:14:01;2.10;;;1.70;;
3779;SDS011;1905;52.482;9.802;2022-10-16T08:16:29;1.87;;;1.67;;
3779;SDS011;1905;52.482;9.802;2022-10-16T08:18:56;4.10;;;1.87;;
3779;SDS011;1905;52.482;9.802;2022-10-16T08:21:24;2.03;;;1.47;;
3779;SDS011;1905;52.482;9.802;2022-10-16T08:23:52;1.50;;;1.40;;
3779;SDS011;1905;52.482;9.802;2022-10-16T08:26:24;5.93;;;1.47;;
3779;SDS011;1905;52.482;9.802;2022-10-16T08:28:54;1.53;;;1.43;;
3779;SDS011;1905;52.482;9.802;2022-10-16T08:31:23;1.70;;;1.60;;
3779;SDS011;1905;52.482;9.802;2022-10-16T08:33:50;10.63;;;3.10;;
3779;SDS011;1905;52.482;9.802;2022-10-16T08:36:19;1.53;;;1.43;;
3779;SDS011;1905;52.482;9.802;2022-10-16T08:38:47;2.70;;;1.70;;
3779;SDS011;1905;52.482;9.802;2022-10-16T08:47:31;1.60;;;1.50;;
3779;SDS011;1905;52.482;9.802;2022-10-16T08:50:19;2.30;;;1.57;;
3779;SDS011;1905;52.482;9.802;2022-10-16T08:52:51;1.53;;;1.43;;
3779;SDS011;1905;52.482;9.802;2022-10-16T08:58:10;1.50;;;1.37;;
3779;SDS011;1905;52.482;9.802;2022-10-16T09:00:42;1.90;;;1.50;;
3779;SDS011;1905;52.482;9.802;2022-10-16T09:03:16;2.83;;;1.37;;
3779;SDS011;1905;52.482;9.802;2022-10-16T09:05:52;2.50;;;1.60;;
3779;SDS011;1905;52.482;9.802;2022-10-16T09:08:40;1.57;;;1.47;;
3779;SDS011;1905;52.482;9.802;2022-10-16T09:11:14;6.15;;;1.70;;
3779;SDS011;1905;52.482;9.802;2022-10-16T09:13:48;8.13;;;1.50;;
3779;SDS011;1905;52.482;9.802;2022-10-16T09:16:23;1.30;;;1.20;;
3779;SDS011;1905;52.482;9.802;2022-10-16T09:18:56;3.13;;;1.23;;
3779;SDS011;1905;52.482;9.802;2022-10-16T09:21:30;3.20;;;1.63;;
3779;SDS011;1905;52.482;9.802;2022-10-16T09:24:00;1.47;;;1.37;;
3779;SDS011;1905;52.482;9.802;2022-10-16T09:26:37;6.90;;;2.70;;
3779;SDS011;1905;52.482;9.802;2022-10-16T09:29:08;1.40;;;1.20;;
3779;SDS011;1905;52.482;9.802;2022-10-16T09:31:41;3.33;;;1.50;;
3779;SDS011;1905;52.482;9.802;2022-10-16T09:34:11;1.80;;;1.50;;
3779;SDS011;1905;52.482;9.802;2022-10-16T09:36:47;1.37;;;1.27;;
3779;SDS011;1905;52.482;9.802;2022-10-16T09:39:16;3.80;;;1.23;;
3779;SDS011;1905;52.482;9.802;2022-10-16T09:41:44;3.37;;;1.40;;
3779;SDS011;1905;52.482;9.802;2022-10-16T09:44:16;2.03;;;1.83;;
3779;SDS011;1905;52.482;9.802;2022-10-16T09:47:00;1.30;;;1.20;;
3779;SDS011;1905;52.482;9.802;2022-10-16T09:49:28;2.10;;;1.90;;
3779;SDS011;1905;52.482;9.802;2022-10-16T09:52:02;1.93;;;1.77;;
3779;SDS011;1905;52.482;9.802;2022-10-16T09:54:31;2.37;;;1.30;;
3779;SDS011;1905;52.482;9.802;2022-10-16T09:57:04;2.30;;;1.43;;
3779;SDS011;1905;52.482;9.802;2022-10-16T09:59:32;1.53;;;1.00;;
3779;SDS011;1905;52.482;9.802;2022-10-16T10:02:03;1.70;;;1.60;;
3779;SDS011;1905;52.482;9.802;2022-10-16T10:04:40;1.40;;;1.30;;
3779;SDS011;1905;52.482;9.802;2022-10-16T10:07:16;1.23;;;1.13;;
3779;SDS011;1905;52.482;9.802;2022-10-16T10:09:46;2.60;;;1.30;;
3779;SDS011;1905;52.482;9.802;2022-10-16T10:12:17;2.37;;;1.30;;
3779;SDS011;1905;52.482;9.802;2022-10-16T10:14:52;1.50;;;1.23;;
3779;SDS011;1905;52.482;9.802;2022-10-16T10:17:23;2.23;;;1.23;;
3779;SDS011;1905;52.482;9.802;2022-10-16T10:19:53;1.50;;;1.40;;
3779;SDS011;1905;52.482;9.802;2022-10-16T10:22:23;1.77;;;1.20;;
3779;SDS011;1905;52.482;9.802;2022-10-16T10:24:55;1.52;;;1.25;;
3779;SDS011;1905;52.482;9.802;2022-10-16T10:27:26;1.60;;;1.30;;
3779;SDS011;1905;52.482;9.802;2022-10-16T10:30:02;1.33;;;1.20;;
3779;SDS011;1905;52.482;9.802;2022-10-16T10:32:49;0.97;;;0.97;;
3779;SDS011;1905;52.482;9.802;2022-10-16T10:35:25;4.17;;;1.00;;
3779;SDS011;1905;52.482;9.802;2022-10-16T10:38:07;1.30;;;1.20;;
3779;SDS011;1905;52.482;9.802;2022-10-16T10:40:49;1.43;;;1.33;;
3779;SDS011;1905;52.482;9.802;2022-10-16T10:43:24;1.43;;;1.20;;
3779;SDS011;1905;52.482;9.802;2022-10-16T10:46:06;1.20;;;1.07;;
3779;SDS011;1905;52.482;9.802;2022-10-16T10:48:50;3.10;;;2.43;;
3779;SDS011;1905;52.482;9.802;2022-10-16T10:51:27;1.30;;;1.20;;
3779;SDS011;1905;52.482;9.802;2022-10-16T10:54:03;1.73;;;1.00;;
3779;SDS011;1905;52.482;9.802;2022-10-16T10:56:44;7.53;;;1.50;;
3779;SDS011;1905;52.482;9.802;2022-10-16T11:02:19;2.37;;;1.00;;
3779;SDS011;1905;52.482;9.802;2022-10-16T11:05:18;2.00;;;1.00;;
3779;SDS011;1905;52.482;9.802;2022-10-16T11:08:02;1.43;;;1.07;;
3779;SDS011;1905;52.482;9.802;2022-10-16T11:10:38;1.20;;;1.10;;
3779;SDS011;1905;52.482;9.802;2022-10-16T11:13:17;1.77;;;1.23;;
3779;SDS011;1905;52.482;9.802;2022-10-16T11:15:51;4.20;;;1.50;;
3779;SDS011;1905;52.482;9.802;2022-10-16T11:18:24;1.90;;;1.17;;
3779;SDS011;1905;52.482;9.802;2022-10-16T11:21:04;3.90;;;1.30;;
3779;SDS011;1905;52.482;9.802;2022-10-16T11:23:37;4.93;;;1.17;;
3779;SDS011;1905;52.482;9.802;2022-10-16T11:26:11;1.50;;;1.33;;
3779;SDS011;1905;52.482;9.802;2022-10-16T11:28:42;3.17;;;1.30;;
3779;SDS011;1905;52.482;9.802;2022-10-16T11:31:17;3.20;;;1.60;;
3779;SDS011;1905;52.482;9.802;2022-10-16T11:33:49;5.03;;;1.10;;
3779;SDS011;1905;52.482;9.802;2022-10-16T11:36:25;2.10;;;1.10;;
3779;SDS011;1905;52.482;9.802;2022-10-16T11:39:02;1.83;;;1.00;;
3779;SDS011;1905;52.482;9.802;2022-10-16T11:41:41;1.42;;;1.15;;
3779;SDS011;1905;52.482;9.802;2022-10-16T11:44:32;2.00;;;1.33;;
3779;SDS011;1905;52.482;9.802;2022-10-16T11:47:08;1.30;;;1.10;;
3779;SDS011;1905;52.482;9.802;2022-10-16T11:50:09;6.20;;;1.30;;
3779;SDS011;1905;52.482;9.802;2022-10-16T11:52:51;0.80;;;0.80;;
3779;SDS011;1905;52.482;9.802;2022-10-16T11:55:23;2.15;;;1.27;;
3779;SDS011;1905;52.482;9.802;2022-10-16T11:57:58;1.23;;;1.13;;
3779;SDS011;1905;52.482;9.802;2022-10-16T12:00:30;1.50;;;1.40;;
3779;SDS011;1905;52.482;9.802;2022-10-16T12:03:08;1.27;;;1.20;;
3779;SDS011;1905;52.482;9.802;2022-10-16T12:05:49;2.97;;;1.50;;
3779;SDS011;1905;52.482;9.802;2022-10-16T12:08:27;3.10;;;1.50;;
3779;SDS011;1905;52.482;9.802;2022-10-16T12:11:07;1.97;;;1.30;;
3779;SDS011;1905;52.482;9.802;2022-10-16T12:13:39;4.67;;;1.57;;
3779;SDS011;1905;52.482;9.802;2022-10-16T12:16:19;1.30;;;1.20;;
3779;SDS011;1905;52.482;9.802;2022-10-16T12:18:49;2.63;;;1.30;;
3779;SDS011;1905;52.482;9.802;2022-10-16T12:21:40;1.57;;;1.10;;
3779;SDS011;1905;52.482;9.802;2022-10-16T12:24:19;1.43;;;1.27;;
3779;SDS011;1905;52.482;9.802;2022-10-16T12:26:52;3.95;;;1.50;;
3779;SDS011;1905;52.482;9.802;2022-10-16T12:29:23;1.20;;;1.00;;
3779;SDS011;1905;52.482;9.802;2022-10-16T12:32:00;1.20;;;1.10;;
3779;SDS011;1905;52.482;9.802;2022-10-16T12:34:32;1.60;;;1.23;;
3779;SDS011;1905;52.482;9.802;2022-10-16T12:37:09;3.20;;;2.03;;
3779;SDS011;1905;52.482;9.802;2022-10-16T12:39:41;1.40;;;1.30;;
3779;SDS011;1905;52.482;9.802;2022-10-16T12:42:23;2.17;;;1.00;;
3779;SDS011;1905;52.482;9.802;2022-10-16T12:44:59;3.30;;;1.17;;
3779;SDS011;1905;52.482;9.802;2022-10-16T12:47:38;2.70;;;1.43;;
3779;SDS011;1905;52.482;9.802;2022-10-16T12:53:17;2.50;;;1.80;;
3779;SDS011;1905;52.482;9.802;2022-10-16T12:55:51;1.97;;;1.40;;
3779;SDS011;1905;52.482;9.802;2022-10-16T13:01:34;1.40;;;1.30;;
3779;SDS011;1905;52.482;9.802;2022-10-16T13:04:21;3.00;;;1.17;;
3779;SDS011;1905;52.482;9.802;2022-10-16T13:07:09;2.03;;;1.83;;
3779;SDS011;1905;52.482;9.802;2022-10-16T13:09:53;1.50;;;1.40;;
3779;SDS011;1905;52.482;9.802;2022-10-16T13:12:45;1.53;;;1.33;;
3779;SDS011;1905;52.482;9.802;2022-10-16T13:15:35;2.73;;;1.33;;
3779;SDS011;1905;52.482;9.802;2022-10-16T13:18:19;6.83;;;1.77;;
3779;SDS011;1905;52.482;9.802;2022-10-16T13:20:56;2.43;;;1.30;;
3779;SDS011;1905;52.482;9.802;2022-10-16T13:23:36;3.10;;;1.60;;
3779;SDS011;1905;52.482;9.802;2022-10-16T13:26:13;2.50;;;1.30;;
3779;SDS011;1905;52.482;9.802;2022-10-16T13:28:51;1.40;;;1.30;;
3779;SDS011;1905;52.482;9.802;2022-10-16T13:31:20;3.13;;;1.37;;
3779;SDS011;1905;52.482;9.802;2022-10-16T13:33:50;1.33;;;1.23;;
3779;SDS011;1905;52.482;9.802;2022-10-16T13:36:22;1.55;;;1.40;;
3779;SDS011;1905;52.482;9.802;2022-10-16T13:38:58;2.37;;;1.27;;
3779;SDS011;1905;52.482;9.802;2022-10-16T13:41:31;1.45;;;1.35;;
3779;SDS011;1905;52.482;9.802;2022-10-16T13:44:00;1.30;;;1.30;;
3779;SDS011;1905;52.482;9.802;2022-10-16T13:46:28;6.70;;;2.05;;
3779;SDS011;1905;52.482;9.802;2022-10-16T13:49:01;1.30;;;1.20;;
3779;SDS011;1905;52.482;9.802;2022-10-16T13:51:30;2.00;;;1.33;;
3779;SDS011;1905;52.482;9.802;2022-10-16T13:53:59;1.63;;;1.50;;
3779;SDS011;1905;52.482;9.802;2022-10-16T13:56:28;2.40;;;1.20;;
3779;SDS011;1905;52.482;9.802;2022-10-16T13:59:01;1.20;;;1.10;;
3779;SDS011;1905;52.482;9.802;2022-10-16T14:01:31;1.20;;;1.10;;
3779;SDS011;1905;52.482;9.802;2022-10-16T14:04:02;1.77;;;1.43;;
3779;SDS011;1905;52.482;9.802;2022-10-16T14:06:32;1.63;;;1.10;;
3779;SDS011;1905;52.482;9.802;2022-10-16T14:09:02;2.07;;;1.30;;
3779;SDS011;1905;52.482;9.802;2022-10-16T14:11:36;1.50;;;1.40;;
3779;SDS011;1905;52.482;9.802;2022-10-16T14:14:13;3.77;;;1.77;;
3779;SDS011;1905;52.482;9.802;2022-10-16T14:16:42;2.50;;;1.33;;
3779;SDS011;1905;52.482;9.802;2022-10-16T14:19:13;2.88;;;1.52;;
3779;SDS011;1905;52.482;9.802;2022-10-16T14:21:45;2.70;;;1.20;;
3779;SDS011;1905;52.482;9.802;2022-10-16T14:24:12;1.20;;;1.10;;
3779;SDS011;1905;52.482;9.802;2022-10-16T14:26:49;1.30;;;1.20;;
3779;SDS011;1905;52.482;9.802;2022-10-16T14:29:18;3.77;;;1.40;;
3779;SDS011;1905;52.482;9.802;2022-10-16T14:31:54;3.35;;;1.15;;
3779;SDS011;1905;52.482;9.802;2022-10-16T14:34:26;1.37;;;1.27;;
3779;SDS011;1905;52.482;9.802;2022-10-16T14:36:59;3.50;;;1.30;;
3779;SDS011;1905;52.482;9.802;2022-10-16T14:39:38;2.17;;;1.87;;
3779;SDS011;1905;52.482;9.802;2022-10-16T14:42:11;1.80;;;1.70;;
3779;SDS011;1905;52.482;9.802;2022-10-16T14:44:45;2.10;;;1.90;;
3779;SDS011;1905;52.482;9.802;2022-10-16T14:47:15;2.27;;;2.07;;
3779;SDS011;1905;52.482;9.802;2022-10-16T14:49:48;1.60;;;1.50;;
3779;SDS011;1905;52.482;9.802;2022-10-16T14:52:16;1.20;;;1.10;;
3779;SDS011;1905;52.482;9.802;2022-10-16T14:54:46;1.57;;;1.10;;
3779;SDS011;1905;52.482;9.802;2022-10-16T14:57:16;1.10;;;1.10;;
3779;SDS011;1905;52.482;9.802;2022-10-16T14:59:47;1.50;;;1.40;;
3779;SDS011;1905;52.482;9.802;2022-10-16T15:02:27;4.03;;;1.10;;
3779;SDS011;1905;52.482;9.802;2022-10-16T15:04:57;1.40;;;1.30;;
3779;SDS011;1905;52.482;9.802;2022-10-16T15:07:31;1.43;;;1.33;;
3779;SDS011;1905;52.482;9.802;2022-10-16T15:09:59;2.40;;;1.50;;
3779;SDS011;1905;52.482;9.802;2022-10-16T15:12:26;1.40;;;1.30;;
3779;SDS011;1905;52.482;9.802;2022-10-16T15:14:55;2.00;;;1.37;;
3779;SDS011;1905;52.482;9.802;2022-10-16T15:17:23;4.72;;;2.05;;
3779;SDS011;1905;52.482;9.802;2022-10-16T15:19:51;3.77;;;1.87;;
3779;SDS011;1905;52.482;9.802;2022-10-16T15:22:18;1.77;;;1.67;;
3779;SDS011;1905;52.482;9.802;2022-10-16T15:24:49;4.37;;;2.67;;
3779;SDS011;1905;52.482;9.802;2022-10-16T15:27:17;2.70;;;1.83;;
3779;SDS011;1905;52.482;9.802;2022-10-16T15:29:45;2.10;;;1.60;;
3779;SDS011;1905;52.482;9.802;2022-10-16T15:32:14;2.60;;;1.30;;
3779;SDS011;1905;52.482;9.802;2022-10-16T15:34:41;3.40;;;1.53;;
3779;SDS011;1905;52.482;9.802;2022-10-16T15:37:09;2.60;;;2.37;;
3779;SDS011;1905;52.482;9.802;2022-10-16T15:39:38;3.93;;;2.40;;
3779;SDS011;1905;52.482;9.802;2022-10-16T15:42:06;3.33;;;2.27;;
3779;SDS011;1905;52.482;9.802;2022-10-16T15:44:34;4.70;;;3.20;;
3779;SDS011;1905;52.482;9.802;2022-10-16T15:47:03;2.27;;;2.10;;
3779;SDS011;1905;52.482;9.802;2022-10-16T15:49:32;2.27;;;2.07;;
3779;SDS011;1905;52.482;9.802;2022-10-16T15:51:59;2.40;;;1.57;;
3779;SDS011;1905;52.482;9.802;2022-10-16T15:54:27;2.23;;;2.10;;
3779;SDS011;1905;52.482;9.802;2022-10-16T15:56:55;2.43;;;1.80;;
3779;SDS011;1905;52.482;9.802;2022-10-16T15:59:22;4.50;;;2.00;;